PRIVATE WETTERSTATION BILLIGHEIM-ALLFELD                       ZURCK
Wetterdaten: Donnerstag, 19.10.2017
Datum Zeit Temp. A. Temp. A. min Temp. A. max Feuchte A. Luftdruck Regen Wind Richtung Richtung Sonnenschein ET Solar Taupunkt Windchill Windben Empfang
19.10.2017 00:00 8,1 C 8,1 C 8,1 C 89 % 1014,2 hPa 0,0 l/m 0,0 km/h (0 Bft) N 0 0 min 0,000 mm 0 W/m 6,4 C 8,1 C 0,0 km/h (0 Bft) 97 %
19.10.2017 00:10 8,2 C 8,1 C 8,2 C 89 % 1014,2 hPa 0,0 l/m 0,0 km/h (0 Bft) N 0 0 min 0,000 mm 0 W/m 6,5 C 8,2 C 0,0 km/h (0 Bft) 98 %
19.10.2017 00:20 8,3 C 8,2 C 8,3 C 89 % 1014,3 hPa 0,0 l/m 1,6 km/h (1 Bft) S-SW 202 0 min 0,000 mm 0 W/m 6,6 C 8,3 C 4,8 km/h (1 Bft) 98 %
19.10.2017 00:30 8,3 C 8,2 C 8,3 C 89 % 1014,3 hPa 0,0 l/m 0,0 km/h (0 Bft) W-NW 292 0 min 0,000 mm 0 W/m 6,6 C 8,3 C 4,8 km/h (1 Bft) 98 %
19.10.2017 00:40 8,2 C 8,2 C 8,3 C 89 % 1014,2 hPa 0,0 l/m 1,6 km/h (1 Bft) NW 315 0 min 0,000 mm 0 W/m 6,5 C 8,2 C 4,8 km/h (1 Bft) 98 %
19.10.2017 00:50 8,3 C 8,2 C 8,3 C 89 % 1014,1 hPa 0,0 l/m 0,0 km/h (0 Bft) NW 315 0 min 0,000 mm 0 W/m 6,6 C 8,3 C 3,2 km/h (1 Bft) 98 %
19.10.2017 01:00 8,3 C 8,3 C 8,3 C 89 % 1014,1 hPa 0,0 l/m 0,0 km/h (0 Bft) N 0 0 min 0,000 mm 0 W/m 6,6 C 8,3 C 0,0 km/h (0 Bft) 98 %
19.10.2017 01:10 8,1 C 8,1 C 8,3 C 90 % 1013,9 hPa 0,0 l/m 0,0 km/h (0 Bft) N 0 0 min 0,000 mm 0 W/m 6,6 C 8,1 C 0,0 km/h (0 Bft) 97 %
19.10.2017 01:20 7,8 C 7,8 C 8,1 C 90 % 1014,0 hPa 0,0 l/m 0,0 km/h (0 Bft) N 0 0 min 0,000 mm 0 W/m 6,3 C 7,8 C 0,0 km/h (0 Bft) 97 %
19.10.2017 01:30 7,5 C 7,5 C 7,8 C 90 % 1013,9 hPa 0,0 l/m 1,6 km/h (1 Bft) N-NW 337 0 min 0,000 mm 0 W/m 6,0 C 7,5 C 6,4 km/h (2 Bft) 98 %
19.10.2017 01:40 7,3 C 7,3 C 7,6 C 89 % 1014,0 hPa 0,0 l/m 0,0 km/h (0 Bft) N-NW 337 0 min 0,000 mm 0 W/m 5,6 C 7,3 C 4,8 km/h (1 Bft) 98 %
19.10.2017 01:50 7,3 C 7,3 C 7,3 C 89 % 1014,0 hPa 0,0 l/m 0,0 km/h (0 Bft) N-NW 337 0 min 0,000 mm 0 W/m 5,6 C 7,3 C 4,8 km/h (1 Bft) 98 %
19.10.2017 02:00 7,3 C 7,3 C 7,3 C 90 % 1013,9 hPa 0,0 l/m 0,0 km/h (0 Bft) N-NW 337 0 min 0,000 mm 0 W/m 5,8 C 7,3 C 1,6 km/h (1 Bft) 98 %
19.10.2017 02:10 7,3 C 7,3 C 7,3 C 90 % 1013,9 hPa 0,0 l/m 0,0 km/h (0 Bft) N 0 0 min 0,000 mm 0 W/m 5,8 C 7,3 C 0,0 km/h (0 Bft) 98 %
19.10.2017 02:20 7,1 C 7,1 C 7,3 C 90 % 1013,9 hPa 0,0 l/m 0,0 km/h (0 Bft) N 0 0 min 0,000 mm 0 W/m 5,6 C 7,1 C 0,0 km/h (0 Bft) 98 %
19.10.2017 02:30 6,9 C 6,9 C 7,1 C 90 % 1013,8 hPa 0,0 l/m 0,0 km/h (0 Bft) N 0 0 min 0,000 mm 0 W/m 5,4 C 6,9 C 0,0 km/h (0 Bft) 98 %
19.10.2017 02:40 6,7 C 6,7 C 6,9 C 90 % 1013,8 hPa 0,0 l/m 0,0 km/h (0 Bft) N 0 0 min 0,000 mm 0 W/m 5,2 C 6,7 C 0,0 km/h (0 Bft) 97 %
19.10.2017 02:50 6,6 C 6,6 C 6,7 C 90 % 1013,7 hPa 0,0 l/m 0,0 km/h (0 Bft) N 0 0 min 0,000 mm 0 W/m 5,1 C 6,6 C 0,0 km/h (0 Bft) 98 %
19.10.2017 03:00 6,4 C 6,4 C 6,6 C 90 % 1013,8 hPa 0,0 l/m 0,0 km/h (0 Bft) N 0 0 min 0,000 mm 0 W/m 4,9 C 6,4 C 0,0 km/h (0 Bft) 97 %
19.10.2017 03:10 6,5 C 6,4 C 6,5 C 90 % 1013,8 hPa 0,0 l/m 0,0 km/h (0 Bft) N 0 0 min 0,000 mm 0 W/m 5,0 C 6,5 C 0,0 km/h (0 Bft) 98 %
19.10.2017 03:20 6,6 C 6,4 C 6,6 C 90 % 1013,8 hPa 0,0 l/m 0,0 km/h (0 Bft) N-NW 337 0 min 0,000 mm 0 W/m 5,1 C 6,6 C 4,8 km/h (1 Bft) 98 %
19.10.2017 03:30 6,7 C 6,6 C 6,7 C 90 % 1013,7 hPa 0,0 l/m 0,0 km/h (0 Bft) N-NW 337 0 min 0,000 mm 0 W/m 5,2 C 6,7 C 1,6 km/h (1 Bft) 98 %
19.10.2017 03:40 6,9 C 6,7 C 6,9 C 90 % 1013,6 hPa 0,0 l/m 0,0 km/h (0 Bft) N-NW 337 0 min 0,000 mm 0 W/m 5,4 C 6,9 C 3,2 km/h (1 Bft) 100 %
19.10.2017 03:50 7,0 C 6,9 C 7,0 C 90 % 1013,5 hPa 0,0 l/m 0,0 km/h (0 Bft) N 0 0 min 0,000 mm 0 W/m 5,5 C 7,0 C 0,0 km/h (0 Bft) 99 %
19.10.2017 04:00 6,9 C 6,8 C 7,0 C 90 % 1013,6 hPa 0,0 l/m 0,0 km/h (0 Bft) N 0 0 min 0,000 mm 0 W/m 5,4 C 6,9 C 0,0 km/h (0 Bft) 100 %
19.10.2017 04:10 6,6 C 6,6 C 6,8 C 90 % 1013,6 hPa 0,0 l/m 0,0 km/h (0 Bft) N 0 0 min 0,000 mm 0 W/m 5,1 C 6,6 C 0,0 km/h (0 Bft) 99 %
19.10.2017 04:20 6,3 C 6,3 C 6,6 C 90 % 1013,5 hPa 0,0 l/m 0,0 km/h (0 Bft) N 0 0 min 0,000 mm 0 W/m 4,8 C 6,3 C 0,0 km/h (0 Bft) 100 %
19.10.2017 04:30 6,3 C 6,2 C 6,3 C 90 % 1013,4 hPa 0,0 l/m 0,0 km/h (0 Bft) N 0 0 min 0,000 mm 0 W/m 4,8 C 6,3 C 0,0 km/h (0 Bft) 100 %
19.10.2017 04:40 6,2 C 6,2 C 6,3 C 90 % 1013,4 hPa 0,0 l/m 0,0 km/h (0 Bft) N 0 0 min 0,000 mm 0 W/m 4,7 C 6,2 C 0,0 km/h (0 Bft) 90 %
19.10.2017 04:50 6,2 C 6,2 C 6,2 C 90 % 1013,4 hPa 0,0 l/m 0,0 km/h (0 Bft) N 0 0 min 0,000 mm 0 W/m 4,7 C 6,2 C 0,0 km/h (0 Bft) 100 %
19.10.2017 05:00 6,0 C 6,0 C 6,2 C 90 % 1013,5 hPa 0,0 l/m 0,0 km/h (0 Bft) N-NW 337 0 min 0,000 mm 0 W/m 4,5 C 6,0 C 3,2 km/h (1 Bft) 100 %
19.10.2017 05:10 5,9 C 5,9 C 6,0 C 90 % 1013,5 hPa 0,0 l/m 0,0 km/h (0 Bft) N 0 0 min 0,000 mm 0 W/m 4,4 C 5,9 C 0,0 km/h (0 Bft) 100 %
19.10.2017 05:20 5,7 C 5,7 C 5,9 C 90 % 1013,5 hPa 0,0 l/m 0,0 km/h (0 Bft) N 0 0 min 0,000 mm 0 W/m 4,2 C 5,7 C 0,0 km/h (0 Bft) 100 %
19.10.2017 05:30 5,8 C 5,7 C 5,8 C 90 % 1013,5 hPa 0,0 l/m 0,0 km/h (0 Bft) N 0 0 min 0,000 mm 0 W/m 4,3 C 5,8 C 0,0 km/h (0 Bft) 99 %
19.10.2017 05:40 5,9 C 5,8 C 6,0 C 90 % 1013,6 hPa 0,0 l/m 0,0 km/h (0 Bft) N-NW 337 0 min 0,000 mm 0 W/m 4,4 C 5,9 C 1,6 km/h (1 Bft) 100 %
19.10.2017 05:50 5,9 C 5,9 C 6,0 C 90 % 1013,5 hPa 0,0 l/m 0,0 km/h (0 Bft) N 0 0 min 0,000 mm 0 W/m 4,4 C 5,9 C 0,0 km/h (0 Bft) 100 %
19.10.2017 06:00 5,7 C 5,7 C 5,9 C 90 % 1013,4 hPa 0,0 l/m 0,0 km/h (0 Bft) N 0 0 min 0,000 mm 0 W/m 4,2 C 5,7 C 0,0 km/h (0 Bft) 100 %
19.10.2017 06:10 5,6 C 5,6 C 5,7 C 90 % 1013,3 hPa 0,0 l/m 0,0 km/h (0 Bft) N 0 0 min 0,000 mm 0 W/m 4,1 C 5,6 C 0,0 km/h (0 Bft) 100 %
19.10.2017 06:20 5,5 C 5,5 C 5,6 C 90 % 1013,2 hPa 0,0 l/m 0,0 km/h (0 Bft) N 0 0 min 0,000 mm 0 W/m 4,0 C 5,5 C 0,0 km/h (0 Bft) 100 %
19.10.2017 06:30 5,4 C 5,4 C 5,5 C 90 % 1013,2 hPa 0,0 l/m 0,0 km/h (0 Bft) N-NW 337 0 min 0,000 mm 0 W/m 3,9 C 5,4 C 1,6 km/h (1 Bft) 100 %
19.10.2017 06:40 5,4 C 5,3 C 5,4 C 90 % 1013,2 hPa 0,0 l/m 0,0 km/h (0 Bft) N 0 0 min 0,000 mm 0 W/m 3,9 C 5,4 C 0,0 km/h (0 Bft) 100 %
19.10.2017 06:50 5,3 C 5,3 C 5,4 C 90 % 1013,3 hPa 0,0 l/m 0,0 km/h (0 Bft) N 0 0 min 0,000 mm 0 W/m 3,8 C 5,3 C 0,0 km/h (0 Bft) 100 %
19.10.2017 07:00 5,3 C 5,3 C 5,3 C 90 % 1013,3 hPa 0,0 l/m 0,0 km/h (0 Bft) N 0 0 min 0,000 mm 0 W/m 3,8 C 5,3 C 0,0 km/h (0 Bft) 100 %
19.10.2017 07:10 5,3 C 5,3 C 5,3 C 90 % 1013,4 hPa 0,0 l/m 0,0 km/h (0 Bft) N-NW 337 0 min 0,000 mm 0 W/m 3,8 C 5,3 C 4,8 km/h (1 Bft) 100 %
19.10.2017 07:20 5,4 C 5,3 C 5,4 C 90 % 1013,4 hPa 0,0 l/m 0,0 km/h (0 Bft) N 360 0 min 0,000 mm 0 W/m 3,9 C 5,4 C 4,8 km/h (1 Bft) 100 %
19.10.2017 07:30 5,8 C 5,4 C 5,8 C 90 % 1013,3 hPa 0,0 l/m 0,0 km/h (0 Bft) N 360 0 min 0,000 mm 0 W/m 4,3 C 5,8 C 1,6 km/h (1 Bft) 100 %
19.10.2017 07:40 6,0 C 5,8 C 6,0 C 90 % 1013,3 hPa 0,0 l/m 0,0 km/h (0 Bft) N 0 0 min 0,000 mm 0 W/m 4,5 C 6,0 C 0,0 km/h (0 Bft) 100 %
19.10.2017 07:50 6,0 C 6,0 C 6,0 C 90 % 1013,3 hPa 0,0 l/m 0,0 km/h (0 Bft) N 0 0 min 0,000 mm 5 W/m 4,5 C 6,0 C 0,0 km/h (0 Bft) 100 %
19.10.2017 08:00 5,8 C 5,8 C 6,0 C 90 % 1013,4 hPa 0,0 l/m 0,0 km/h (0 Bft) N 0 0 min 0,000 mm 9 W/m 4,3 C 5,8 C 0,0 km/h (0 Bft) 100 %
19.10.2017 08:10 5,6 C 5,6 C 5,8 C 90 % 1013,5 hPa 0,0 l/m 0,0 km/h (0 Bft) N 0 0 min 0,000 mm 14 W/m 4,1 C 5,6 C 0,0 km/h (0 Bft) 100 %
19.10.2017 08:20 5,5 C 5,5 C 5,6 C 90 % 1013,5 hPa 0,0 l/m 0,0 km/h (0 Bft) N 0 0 min 0,000 mm 16 W/m 4,0 C 5,5 C 0,0 km/h (0 Bft) 100 %
19.10.2017 08:30 5,4 C 5,4 C 5,5 C 90 % 1013,6 hPa 0,0 l/m 0,0 km/h (0 Bft) N 0 0 min 0,000 mm 21 W/m 3,9 C 5,4 C 0,0 km/h (0 Bft) 100 %
19.10.2017 08:40 5,3 C 5,3 C 5,4 C 90 % 1013,6 hPa 0,0 l/m 0,0 km/h (0 Bft) N 0 0 min 0,000 mm 32 W/m 3,8 C 5,3 C 0,0 km/h (0 Bft) 100 %
19.10.2017 08:50 5,5 C 5,3 C 5,5 C 90 % 1013,8 hPa 0,0 l/m 0,0 km/h (0 Bft) N 360 0 min 0,000 mm 47 W/m 4,0 C 5,5 C 1,6 km/h (1 Bft) 100 %
19.10.2017 09:00 5,6 C 5,5 C 5,6 C 90 % 1014,0 hPa 0,0 l/m 0,0 km/h (0 Bft) N-NW 337 0 min 0,000 mm 58 W/m 4,1 C 5,6 C 4,8 km/h (1 Bft) 100 %
19.10.2017 09:10 5,8 C 5,6 C 5,8 C 90 % 1014,0 hPa 0,0 l/m 0,0 km/h (0 Bft) N 360 0 min 0,000 mm 98 W/m 4,3 C 5,8 C 4,8 km/h (1 Bft) 100 %
19.10.2017 09:20 6,4 C 5,8 C 6,4 C 90 % 1013,9 hPa 0,0 l/m 0,0 km/h (0 Bft) N 360 10 min 0,000 mm 209 W/m 4,9 C 6,4 C 1,6 km/h (1 Bft) 100 %
19.10.2017 09:30 6,7 C 6,4 C 6,7 C 90 % 1013,9 hPa 0,0 l/m 0,0 km/h (0 Bft) N 0 10 min 0,000 mm 174 W/m 5,2 C 6,7 C 0,0 km/h (0 Bft) 100 %
19.10.2017 09:40 7,7 C 6,7 C 7,7 C 91 % 1014,0 hPa 0,0 l/m 0,0 km/h (0 Bft) N 360 10 min 0,000 mm 236 W/m 6,3 C 7,7 C 3,2 km/h (1 Bft) 100 %
19.10.2017 09:50 8,4 C 7,7 C 8,4 C 91 % 1014,3 hPa 0,0 l/m 0,0 km/h (0 Bft) N 360 10 min 0,000 mm 264 W/m 7,0 C 8,4 C 1,6 km/h (1 Bft) 100 %
19.10.2017 10:00 8,9 C 8,5 C 8,9 C 91 % 1014,2 hPa 0,0 l/m 0,0 km/h (0 Bft) N 360 10 min 0,076 mm 269 W/m 7,5 C 8,9 C 1,6 km/h (1 Bft) 100 %
19.10.2017 10:10 9,6 C 8,9 C 9,6 C 90 % 1014,4 hPa 0,0 l/m 0,0 km/h (0 Bft) N 0 10 min 0,000 mm 371 W/m 8,0 C 9,6 C 0,0 km/h (0 Bft) 100 %
19.10.2017 10:20 9,9 C 9,6 C 9,9 C 90 % 1014,3 hPa 0,0 l/m 0,0 km/h (0 Bft) N 0 10 min 0,000 mm 160 W/m 8,3 C 9,9 C 0,0 km/h (0 Bft) 100 %
19.10.2017 10:30 10,2 C 9,9 C 10,2 C 90 % 1014,3 hPa 0,0 l/m 0,0 km/h (0 Bft) N 360 0 min 0,000 mm 130 W/m 8,6 C 10,2 C 3,2 km/h (1 Bft) 100 %
19.10.2017 10:40 10,6 C 10,2 C 10,6 C 90 % 1014,3 hPa 0,0 l/m 0,0 km/h (0 Bft) N 0 0 min 0,000 mm 118 W/m 9,0 C 10,6 C 0,0 km/h (0 Bft) 100 %
19.10.2017 10:50 10,8 C 10,6 C 10,8 C 90 % 1014,0 hPa 0,0 l/m 0,0 km/h (0 Bft) N 0 0 min 0,000 mm 120 W/m 9,2 C 10,8 C 0,0 km/h (0 Bft) 100 %
19.10.2017 11:00 11,2 C 10,8 C 11,2 C 90 % 1014,4 hPa 0,0 l/m 1,6 km/h (1 Bft) N-NW 337 10 min 0,076 mm 220 W/m 9,6 C 11,2 C 6,4 km/h (2 Bft) 100 %
19.10.2017 11:10 11,4 C 11,2 C 11,4 C 90 % 1014,5 hPa 0,0 l/m 0,0 km/h (0 Bft) N-NW 337 10 min 0,000 mm 403 W/m 9,8 C 11,4 C 3,2 km/h (1 Bft) 100 %
19.10.2017 11:20 11,9 C 11,4 C 11,9 C 90 % 1014,4 hPa 0,0 l/m 0,0 km/h (0 Bft) N 0 10 min 0,000 mm 415 W/m 10,3 C 11,9 C 0,0 km/h (0 Bft) 100 %
19.10.2017 11:30 12,8 C 11,9 C 12,8 C 90 % 1014,4 hPa 0,0 l/m 0,0 km/h (0 Bft) N-NW 337 10 min 0,000 mm 527 W/m 11,2 C 12,8 C 1,6 km/h (1 Bft) 100 %
19.10.2017 11:40 13,7 C 12,8 C 13,7 C 89 % 1014,3 hPa 0,0 l/m 0,0 km/h (0 Bft) N-NW 337 10 min 0,000 mm 485 W/m 11,9 C 13,7 C 3,2 km/h (1 Bft) 99 %
19.10.2017 11:50 14,3 C 13,7 C 14,3 C 83 % 1014,3 hPa 0,0 l/m 0,0 km/h (0 Bft) NW 315 10 min 0,000 mm 497 W/m 11,5 C 14,3 C 4,8 km/h (1 Bft) 100 %
19.10.2017 12:00 14,8 C 14,3 C 14,8 C 82 % 1014,2 hPa 0,0 l/m 0,0 km/h (0 Bft) W-SW 247 10 min 0,152 mm 248 W/m 11,8 C 14,8 C 6,4 km/h (2 Bft) 100 %
19.10.2017 12:10 15,2 C 14,7 C 15,2 C 81 % 1014,3 hPa 0,0 l/m 3,2 km/h (1 Bft) SW 225 10 min 0,000 mm 482 W/m 12,0 C 15,2 C 6,4 km/h (2 Bft) 100 %
19.10.2017 12:20 15,8 C 15,2 C 15,8 C 79 % 1014,3 hPa 0,0 l/m 1,6 km/h (1 Bft) SW 225 10 min 0,000 mm 471 W/m 12,2 C 15,8 C 8,0 km/h (2 Bft) 100 %
19.10.2017 12:30 16,3 C 15,8 C 16,3 C 77 % 1014,3 hPa 0,0 l/m 3,2 km/h (1 Bft) S-SW 202 10 min 0,000 mm 255 W/m 12,3 C 16,3 C 6,4 km/h (2 Bft) 100 %
19.10.2017 12:40 16,8 C 16,3 C 16,8 C 74 % 1014,4 hPa 0,0 l/m 4,8 km/h (1 Bft) S-SW 202 10 min 0,000 mm 510 W/m 12,1 C 16,8 C 9,7 km/h (2 Bft) 100 %
19.10.2017 12:50 16,8 C 16,7 C 16,8 C 74 % 1014,4 hPa 0,0 l/m 1,6 km/h (1 Bft) S-SW 202 10 min 0,000 mm 283 W/m 12,1 C 16,8 C 8,0 km/h (2 Bft) 99 %
19.10.2017 13:00 16,7 C 16,7 C 16,8 C 72 % 1014,4 hPa 0,0 l/m 1,6 km/h (1 Bft) S-SW 202 10 min 0,178 mm 485 W/m 11,6 C 16,7 C 8,0 km/h (2 Bft) 100 %
19.10.2017 13:10 16,7 C 16,7 C 16,7 C 73 % 1014,3 hPa 0,0 l/m 0,0 km/h (0 Bft) S-SW 202 10 min 0,000 mm 257 W/m 11,8 C 16,7 C 8,0 km/h (2 Bft) 99 %
19.10.2017 13:20 16,8 C 16,7 C 16,8 C 72 % 1014,1 hPa 0,0 l/m 1,6 km/h (1 Bft) S-SW 202 10 min 0,000 mm 271 W/m 11,7 C 16,8 C 6,4 km/h (2 Bft) 100 %
19.10.2017 13:30 16,8 C 16,8 C 16,8 C 71 % 1014,2 hPa 0,0 l/m 0,0 km/h (0 Bft) S-SW 202 0 min 0,000 mm 121 W/m 11,5 C 16,8 C 1,6 km/h (1 Bft) 99 %
19.10.2017 13:40 16,8 C 16,8 C 16,8 C 73 % 1013,8 hPa 0,0 l/m 0,0 km/h (0 Bft) SW 225 10 min 0,000 mm 229 W/m 11,9 C 16,8 C 1,6 km/h (1 Bft) 100 %
19.10.2017 13:50 16,8 C 16,8 C 16,9 C 73 % 1013,5 hPa 0,0 l/m 1,6 km/h (1 Bft) S-SO 157 10 min 0,000 mm 471 W/m 11,9 C 16,8 C 6,4 km/h (2 Bft) 100 %
19.10.2017 14:00 17,2 C 16,9 C 17,2 C 72 % 1013,4 hPa 0,0 l/m 0,0 km/h (0 Bft) S-SO 157 10 min 0,127 mm 454 W/m 12,1 C 17,2 C 4,8 km/h (1 Bft) 100 %
19.10.2017 14:10 17,6 C 17,2 C 17,6 C 70 % 1013,2 hPa 0,0 l/m 0,0 km/h (0 Bft) N 0 10 min 0,000 mm 255 W/m 12,1 C 17,6 C 0,0 km/h (0 Bft) 100 %
19.10.2017 14:20 18,0 C 17,6 C 18,0 C 70 % 1013,2 hPa 0,0 l/m 0,0 km/h (0 Bft) SW 225 10 min 0,000 mm 387 W/m 12,4 C 18,0 C 6,4 km/h (2 Bft) 100 %
19.10.2017 14:30 18,4 C 18,0 C 18,4 C 70 % 1013,2 hPa 0,0 l/m 0,0 km/h (0 Bft) S-SW 202 10 min 0,000 mm 432 W/m 12,8 C 18,4 C 6,4 km/h (2 Bft) 100 %
19.10.2017 14:40 18,7 C 18,4 C 18,7 C 66 % 1013,1 hPa 0,0 l/m 0,0 km/h (0 Bft) S-SW 202 10 min 0,000 mm 408 W/m 12,2 C 18,7 C 1,6 km/h (1 Bft) 100 %
19.10.2017 14:50 18,9 C 18,7 C 18,9 C 67 % 1012,9 hPa 0,0 l/m 0,0 km/h (0 Bft) S-SW 202 10 min 0,000 mm 251 W/m 12,6 C 18,9 C 1,6 km/h (1 Bft) 100 %
19.10.2017 15:00 19,2 C 18,9 C 19,2 C 66 % 1012,7 hPa 0,0 l/m 0,0 km/h (0 Bft) S 180 10 min 0,152 mm 394 W/m 12,7 C 19,2 C 1,6 km/h (1 Bft) 100 %
19.10.2017 15:10 19,5 C 19,2 C 19,5 C 67 % 1012,7 hPa 0,0 l/m 0,0 km/h (0 Bft) W 270 10 min 0,000 mm 387 W/m 13,2 C 19,5 C 8,0 km/h (2 Bft) 100 %
19.10.2017 15:20 19,7 C 19,5 C 19,7 C 64 % 1012,7 hPa 0,0 l/m 0,0 km/h (0 Bft) W-NW 292 10 min 0,000 mm 378 W/m 12,7 C 19,7 C 9,7 km/h (2 Bft) 100 %
19.10.2017 15:30 19,6 C 19,6 C 19,7 C 63 % 1012,7 hPa 0,0 l/m 0,0 km/h (0 Bft) SW 225 10 min 0,000 mm 334 W/m 12,4 C 19,6 C 6,4 km/h (2 Bft) 100 %
19.10.2017 15:40 19,6 C 19,6 C 19,6 C 66 % 1012,6 hPa 0,0 l/m 0,0 km/h (0 Bft) SW 225 10 min 0,000 mm 341 W/m 13,1 C 19,6 C 1,6 km/h (1 Bft) 100 %
19.10.2017 15:50 19,7 C 19,6 C 19,7 C 63 % 1012,3 hPa 0,0 l/m 0,0 km/h (0 Bft) N 0 10 min 0,000 mm 279 W/m 12,5 C 19,7 C 0,0 km/h (0 Bft) 100 %
19.10.2017 16:00 19,8 C 19,7 C 19,8 C 61 % 1012,4 hPa 0,0 l/m 0,0 km/h (0 Bft) S-SW 202 0 min 0,152 mm 62 W/m 12,1 C 19,8 C 1,6 km/h (1 Bft) 100 %
19.10.2017 16:10 20,0 C 19,8 C 20,0 C 61 % 1012,4 hPa 0,0 l/m 0,0 km/h (0 Bft) N 0 0 min 0,000 mm 58 W/m 12,2 C 20,0 C 0,0 km/h (0 Bft) 100 %
19.10.2017 16:20 20,1 C 20,0 C 20,1 C 64 % 1012,5 hPa 0,0 l/m 0,0 km/h (0 Bft) S-SW 202 0 min 0,000 mm 56 W/m 13,1 C 20,1 C 1,6 km/h (1 Bft) 100 %
19.10.2017 16:30 20,1 C 20,1 C 20,1 C 64 % 1012,4 hPa 0,0 l/m 0,0 km/h (0 Bft) N 0 0 min 0,000 mm 53 W/m 13,1 C 20,1 C 0,0 km/h (0 Bft) 100 %
19.10.2017 16:40 20,0 C 20,0 C 20,1 C 62 % 1012,4 hPa 0,0 l/m 0,0 km/h (0 Bft) S 180 0 min 0,000 mm 51 W/m 12,5 C 20,0 C 6,4 km/h (2 Bft) 100 %
19.10.2017 16:50 19,8 C 19,8 C 20,0 C 61 % 1012,3 hPa 0,0 l/m 0,0 km/h (0 Bft) S-SO 157 0 min 0,000 mm 47 W/m 12,1 C 19,8 C 6,4 km/h (2 Bft) 100 %
19.10.2017 17:00 19,7 C 19,7 C 19,8 C 62 % 1012,2 hPa 0,0 l/m 0,0 km/h (0 Bft) S-SO 157 0 min 0,025 mm 44 W/m 12,2 C 19,7 C 1,6 km/h (1 Bft) 100 %
19.10.2017 17:10 19,5 C 19,5 C 19,7 C 63 % 1012,1 hPa 0,0 l/m 0,0 km/h (0 Bft) S-SO 157 0 min 0,000 mm 42 W/m 12,3 C 19,5 C 6,4 km/h (2 Bft) 100 %
19.10.2017 17:20 19,3 C 19,3 C 19,5 C 65 % 1012,0 hPa 0,0 l/m 0,0 km/h (0 Bft) N 0 0 min 0,000 mm 37 W/m 12,6 C 19,3 C 0,0 km/h (0 Bft) 100 %
19.10.2017 17:30 19,0 C 19,0 C 19,3 C 65 % 1012,0 hPa 0,0 l/m 0,0 km/h (0 Bft) N 0 0 min 0,000 mm 33 W/m 12,3 C 19,0 C 0,0 km/h (0 Bft) 99 %
19.10.2017 17:40 18,8 C 18,8 C 19,0 C 65 % 1012,0 hPa 0,0 l/m 0,0 km/h (0 Bft) N 0 0 min 0,000 mm 30 W/m 12,1 C 18,8 C 0,0 km/h (0 Bft) 100 %
19.10.2017 17:50 18,6 C 18,6 C 18,8 C 67 % 1012,0 hPa 0,0 l/m 0,0 km/h (0 Bft) N 0 0 min 0,000 mm 25 W/m 12,3 C 18,6 C 0,0 km/h (0 Bft) 99 %
19.10.2017 18:00 18,2 C 18,2 C 18,6 C 69 % 1012,0 hPa 0,0 l/m 0,0 km/h (0 Bft) N 0 0 min 0,025 mm 19 W/m 12,4 C 18,2 C 0,0 km/h (0 Bft) 100 %
19.10.2017 18:10 17,8 C 17,8 C 18,2 C 69 % 1012,1 hPa 0,0 l/m 0,0 km/h (0 Bft) N 0 0 min 0,000 mm 14 W/m 12,0 C 17,8 C 0,0 km/h (0 Bft) 100 %
19.10.2017 18:20 17,4 C 17,4 C 17,8 C 70 % 1012,1 hPa 0,0 l/m 0,0 km/h (0 Bft) N 0 0 min 0,000 mm 9 W/m 11,9 C 17,4 C 0,0 km/h (0 Bft) 100 %
19.10.2017 18:30 17,0 C 17,0 C 17,4 C 73 % 1012,3 hPa 0,0 l/m 0,0 km/h (0 Bft) S-SO 157 0 min 0,000 mm 5 W/m 12,1 C 17,0 C 3,2 km/h (1 Bft) 100 %
19.10.2017 18:40 16,5 C 16,5 C 17,0 C 74 % 1012,4 hPa 0,0 l/m 0,0 km/h (0 Bft) N 0 0 min 0,000 mm 0 W/m 11,8 C 16,5 C 0,0 km/h (0 Bft) 100 %
19.10.2017 18:50 16,1 C 16,1 C 16,5 C 76 % 1012,3 hPa 0,0 l/m 0,0 km/h (0 Bft) N 0 0 min 0,000 mm 0 W/m 11,9 C 16,1 C 0,0 km/h (0 Bft) 100 %
19.10.2017 19:00 15,7 C 15,7 C 16,1 C 78 % 1012,4 hPa 0,0 l/m 0,0 km/h (0 Bft) N 0 0 min 0,000 mm 0 W/m 11,9 C 15,7 C 0,0 km/h (0 Bft) 100 %
19.10.2017 19:10 15,3 C 15,3 C 15,7 C 79 % 1012,5 hPa 0,0 l/m 0,0 km/h (0 Bft) N 0 0 min 0,000 mm 0 W/m 11,7 C 15,3 C 0,0 km/h (0 Bft) 100 %
19.10.2017 19:20 14,9 C 14,9 C 15,3 C 81 % 1012,5 hPa 0,0 l/m 0,0 km/h (0 Bft) S-SO 157 0 min 0,000 mm 0 W/m 11,7 C 14,9 C 1,6 km/h (1 Bft) 99 %
19.10.2017 19:30 14,5 C 14,5 C 14,9 C 82 % 1012,3 hPa 0,0 l/m 0,0 km/h (0 Bft) N 0 0 min 0,000 mm 0 W/m 11,5 C 14,5 C 0,0 km/h (0 Bft) 100 %
19.10.2017 19:40 14,1 C 14,1 C 14,4 C 83 % 1012,3 hPa 0,0 l/m 0,0 km/h (0 Bft) N 0 0 min 0,000 mm 0 W/m 11,3 C 14,1 C 0,0 km/h (0 Bft) 100 %
19.10.2017 19:50 13,7 C 13,7 C 14,1 C 85 % 1012,3 hPa 0,0 l/m 0,0 km/h (0 Bft) S-SO 157 0 min 0,000 mm 0 W/m 11,2 C 13,7 C 4,8 km/h (1 Bft) 100 %
19.10.2017 20:00 13,4 C 13,4 C 13,7 C 86 % 1012,3 hPa 0,0 l/m 0,0 km/h (0 Bft) S-SO 157 0 min 0,025 mm 0 W/m 11,1 C 13,4 C 1,6 km/h (1 Bft) 100 %
19.10.2017 20:10 13,2 C 13,2 C 13,4 C 87 % 1012,3 hPa 0,0 l/m 0,0 km/h (0 Bft) S-SO 157 0 min 0,000 mm 0 W/m 11,1 C 13,2 C 1,6 km/h (1 Bft) 100 %
19.10.2017 20:20 12,9 C 12,9 C 13,2 C 87 % 1012,2 hPa 0,0 l/m 0,0 km/h (0 Bft) N 0 0 min 0,000 mm 0 W/m 10,8 C 12,9 C 0,0 km/h (0 Bft) 100 %
19.10.2017 20:30 12,6 C 12,6 C 12,9 C 88 % 1012,3 hPa 0,0 l/m 0,0 km/h (0 Bft) N 0 0 min 0,000 mm 0 W/m 10,7 C 12,6 C 0,0 km/h (0 Bft) 99 %
19.10.2017 20:50 12,2 C 12,2 C 12,9 C 89 % 1012,6 hPa 0,0 l/m 0,0 km/h (0 Bft) S 173 0 min 0,003 mm 0 W/m 10,4 C 12,2 C 0,0 km/h (0 Bft) 98 %
19.10.2017 21:00 12,2 C 12,1 C 12,2 C 89 % 1012,5 hPa 0,0 l/m 0,0 km/h (0 Bft) S 173 0 min 0,000 mm 0 W/m 10,4 C 12,2 C 1,6 km/h (1 Bft) 100 %
19.10.2017 21:10 12,2 C 12,1 C 12,2 C 89 % 1012,4 hPa 0,0 l/m 0,8 km/h (0 Bft) S 173 0 min 0,000 mm 0 W/m 10,4 C 12,2 C 4,8 km/h (1 Bft) 100 %
19.10.2017 21:20 12,2 C 12,2 C 12,2 C 89 % 1012,4 hPa 0,0 l/m 0,0 km/h (0 Bft) S 173 0 min 0,000 mm 0 W/m 10,4 C 12,2 C 0,0 km/h (0 Bft) 99 %
19.10.2017 21:30 12,1 C 12,1 C 12,2 C 89 % 1012,4 hPa 0,0 l/m 2,0 km/h (1 Bft) S 174 0 min 0,000 mm 0 W/m 10,3 C 12,1 C 4,8 km/h (1 Bft) 99 %
19.10.2017 21:40 11,9 C 11,9 C 12,1 C 89 % 1012,3 hPa 0,0 l/m 0,0 km/h (0 Bft) S 174 0 min 0,000 mm 0 W/m 10,1 C 11,9 C 0,0 km/h (0 Bft) 100 %
19.10.2017 21:50 11,8 C 11,8 C 11,9 C 89 % 1012,4 hPa 0,0 l/m 0,0 km/h (0 Bft) N 0 0 min 0,000 mm 0 W/m 10,0 C 11,8 C 0,0 km/h (0 Bft) 100 %
19.10.2017 22:00 11,7 C 11,7 C 11,8 C 89 % 1012,4 hPa 0,0 l/m 0,0 km/h (0 Bft) N 0 0 min 0,000 mm 0 W/m 9,9 C 11,7 C 0,0 km/h (0 Bft) 100 %
19.10.2017 22:10 11,6 C 11,6 C 11,7 C 89 % 1012,5 hPa 0,0 l/m 0,0 km/h (0 Bft) S-SW 202 0 min 0,000 mm 0 W/m 9,8 C 11,6 C 4,8 km/h (1 Bft) 99 %
19.10.2017 22:20 11,5 C 11,5 C 11,6 C 89 % 1012,4 hPa 0,0 l/m 1,6 km/h (1 Bft) NW 315 0 min 0,000 mm 0 W/m 9,8 C 11,5 C 4,8 km/h (1 Bft) 100 %
19.10.2017 22:30 11,3 C 11,3 C 11,5 C 89 % 1012,5 hPa 0,0 l/m 0,0 km/h (0 Bft) NW 315 0 min 0,000 mm 0 W/m 9,6 C 11,3 C 1,6 km/h (1 Bft) 100 %
19.10.2017 22:40 11,3 C 11,3 C 11,3 C 89 % 1012,5 hPa 0,0 l/m 0,0 km/h (0 Bft) N 0 0 min 0,000 mm 0 W/m 9,6 C 11,3 C 0,0 km/h (0 Bft) 100 %
19.10.2017 22:50 11,2 C 11,2 C 11,3 C 89 % 1012,4 hPa 0,0 l/m 0,0 km/h (0 Bft) N 0 0 min 0,000 mm 0 W/m 9,5 C 11,2 C 0,0 km/h (0 Bft) 100 %
19.10.2017 23:00 11,3 C 11,2 C 11,3 C 89 % 1012,4 hPa 0,0 l/m 1,6 km/h (1 Bft) NW 315 0 min 0,000 mm 0 W/m 9,6 C 11,3 C 4,8 km/h (1 Bft) 100 %
19.10.2017 23:10 11,5 C 11,3 C 11,5 C 89 % 1012,3 hPa 0,0 l/m 1,6 km/h (1 Bft) N-NW 337 0 min 0,000 mm 0 W/m 9,8 C 11,5 C 4,8 km/h (1 Bft) 100 %
19.10.2017 23:20 11,5 C 11,5 C 11,6 C 89 % 1012,2 hPa 0,0 l/m 0,0 km/h (0 Bft) N 0 0 min 0,000 mm 0 W/m 9,8 C 11,5 C 0,0 km/h (0 Bft) 100 %
19.10.2017 23:30 11,7 C 11,5 C 11,7 C 89 % 1012,1 hPa 0,0 l/m 0,0 km/h (0 Bft) N 0 0 min 0,000 mm 0 W/m 9,9 C 11,7 C 0,0 km/h (0 Bft) 100 %
19.10.2017 23:40 11,6 C 11,6 C 11,7 C 90 % 1012,1 hPa 0,0 l/m 0,0 km/h (0 Bft) N 0 0 min 0,000 mm 0 W/m 10,0 C 11,6 C 0,0 km/h (0 Bft) 100 %
19.10.2017 23:50 11,3 C 11,3 C 11,6 C 90 % 1012,1 hPa 0,0 l/m 0,0 km/h (0 Bft) N 360 0 min 0,000 mm 0 W/m 9,7 C 11,3 C 3,2 km/h (1 Bft) 100 %
_ Min-Zeit 06:40 06:40 07:00 16:00 17:20 - 00:00 - - - - - 06:50 06:50 00:00 04:40
Minimum _ 5,3 C 5,3 C 5,3 C 61 % 1012,0 hPa - 0,0 km/h (0 Bft) - - - - - 3,8 C 5,3 C 0,0 km/h (0 Bft) 90 %
_ Max-Zeit 16:20 16:30 16:20 09:40 11:10 00:00 12:40 - - 09:20 13:00 11:30 15:10 16:20 12:40 04:00
Maximum _ 20,1 C 20,1 C 20,1 C 91 % 1014,5 hPa 0,0 l/m 4,8 km/h
S-SW (1 Bft)
- - 10 min 0,178 mm 527 W/m 13,2 C 20,1 C 9,7 km/h
S-SW (2 Bft)
100 %
Durchschnitt _ 11,5 C 11,4 C 11,6 C 83 % 1013,3 hPa #0,0 l/m 0,2 km/h (0 Bft) S-SW - #6:00 h #0,991 mm 213 W/m 8,6 C 11,5 C 2,1 km/h (1 Bft) 99 %
PRIVATE WETTERSTATION BILLIGHEIM-ALLFELD - www.neckar-odenwald-wetter.de - Holger Sonntag